Time;durP1;ratioP1;P1;durP2;ratioP2;P2;SDS_P1;SDS_P2;PMS_P1;PMS_P2;Temp;Humidity;BMP_temperature;BMP_pressure;BME280_temperature;BME280_humidity;BME280_pressure;Samples;Min_cycle;Max_cycle;Signal;HPM_P1;HPM_P2
2021/05/15 00:00:56;;;;;;;;;;;23.00;37.70;;;;;;1597870;73;803;-66
2021/05/15 00:02:58;;;;;;;;;;;22.90;37.70;;;;;;1594767;73;819;-64
2021/05/15 00:05:00;;;;;;;;;;;23.00;37.70;;;;;;1603230;73;798;-65
2021/05/15 00:07:02;;;;;;;;;;;22.90;37.60;;;;;;1601262;73;712;-65
2021/05/15 00:09:04;;;;;;;;;;;22.90;37.60;;;;;;1601631;73;1183;-65
2021/05/15 00:11:06;;;;;;;;;;;23.00;37.70;;;;;;1598448;73;809;-66
2021/05/15 00:13:08;;;;;;;;;;;22.90;37.80;;;;;;1599156;73;762;-66
2021/05/15 00:15:11;;;;;;;;;;;22.90;37.70;;;;;;1603795;73;1962;-66
2021/05/15 00:17:13;;;;;;;;;;;23.00;37.60;;;;;;1597638;73;667;-66
2021/05/15 00:19:15;;;;;;;;;;;23.00;37.60;;;;;;1599916;73;1157;-66
2021/05/15 00:21:16;;;;;;;;;;;22.90;37.60;;;;;;1600085;73;728;-65
2021/05/15 00:23:18;;;;;;;;;;;22.90;37.60;;;;;;1606800;73;776;-65
2021/05/15 00:25:20;;;;;;;;;;;23.00;37.70;;;;;;1607675;73;764;-65
2021/05/15 00:27:22;;;;;;;;;;;23.00;37.70;;;;;;1566029;74;800;-65
2021/05/15 00:29:24;;;;;;;;;;;23.00;37.70;;;;;;1552689;74;1098;-65
2021/05/15 00:31:26;;;;;;;;;;;23.00;37.80;;;;;;1589030;73;755;-65
2021/05/15 00:33:28;;;;;;;;;;;22.90;37.90;;;;;;1591697;73;695;-66
2021/05/15 00:35:29;;;;;;;;;;;23.10;38.10;;;;;;1582938;73;1925;-66
2021/05/15 00:37:31;;;;;;;;;;;23.00;38.00;;;;;;1560016;74;804;-65
2021/05/15 00:39:33;;;;;;;;;;;23.00;38.10;;;;;;1555176;74;1221;-66
2021/05/15 00:41:37;;;;;;;;;;;23.00;38.10;;;;;;1585437;73;793;-66
2021/05/15 00:43:45;;;;;;;;;;;22.90;38.10;;;;;;1587366;73;1527;-66
2021/05/15 00:45:42;;;;;;;;;;;23.00;38.20;;;;;;1603991;73;1731;-66
2021/05/15 00:47:44;;;;;;;;;;;23.00;38.10;;;;;;1570585;74;806;-66
2021/05/15 00:49:46;;;;;;;;;;;23.00;38.30;;;;;;1573816;74;1134;-67
2021/05/15 00:51:48;;;;;;;;;;;23.00;38.40;;;;;;1574313;74;804;-66
2021/05/15 00:53:50;;;;;;;;;;;23.00;38.30;;;;;;1598563;73;754;-66
2021/05/15 00:55:52;;;;;;;;;;;23.00;38.50;;;;;;1601277;73;1929;-67
2021/05/15 00:57:55;;;;;;;;;;;23.00;38.40;;;;;;1566273;74;672;-65
2021/05/15 00:59:57;;;;;;;;;;;23.10;38.70;;;;;;1574964;74;1149;-66
2021/05/15 01:01:59;;;;;;;;;;;23.00;38.60;;;;;;1605622;73;769;-65
2021/05/15 01:04:01;;;;;;;;;;;23.10;38.80;;;;;;1570922;74;740;-63
2021/05/15 01:06:06;;;;;;;;;;;23.00;38.60;;;;;;1597130;73;688;-66
2021/05/15 01:08:08;;;;;;;;;;;23.10;38.80;;;;;;1589171;73;825;-66
2021/05/15 01:10:10;;;;;;;;;;;23.10;38.80;;;;;;1591417;73;1130;-66
2021/05/15 01:12:12;;;;;;;;;;;23.00;38.70;;;;;;1603614;73;833;-66
2021/05/15 01:14:14;;;;;;;;;;;23.10;38.80;;;;;;1576648;74;1937;-66
2021/05/15 01:16:16;;;;;;;;;;;23.10;38.80;;;;;;1590205;73;753;-63
2021/05/15 01:18:17;;;;;;;;;;;23.10;38.80;;;;;;1601102;73;1157;-65
2021/05/15 01:20:20;;;;;;;;;;;23.10;38.80;;;;;;1594477;73;765;-66
2021/05/15 01:22:22;;;;;;;;;;;23.00;38.80;;;;;;1606884;73;691;-66
2021/05/15 01:24:23;;;;;;;;;;;23.00;39.10;;;;;;1596383;73;750;-65
2021/05/15 01:26:26;;;;;;;;;;;23.10;39.30;;;;;;1605870;73;758;-65
2021/05/15 01:28:31;;;;;;;;;;;23.20;39.40;;;;;;1585539;73;1113;-65
2021/05/15 01:30:33;;;;;;;;;;;23.00;39.30;;;;;;1589894;73;713;-66
2021/05/15 01:32:36;;;;;;;;;;;23.10;39.50;;;;;;1565863;74;866;-66
2021/05/15 01:34:39;;;;;;;;;;;23.00;39.50;;;;;;1574457;74;1903;-65
2021/05/15 01:36:42;;;;;;;;;;;23.00;39.50;;;;;;1565718;74;729;-65
2021/05/15 01:38:44;;;;;;;;;;;23.00;39.50;;;;;;1587713;74;1097;-66
2021/05/15 01:40:46;;;;;;;;;;;22.90;39.50;;;;;;1577031;74;729;-63
2021/05/15 01:42:48;;;;;;;;;;;23.00;39.70;;;;;;1603943;73;738;-66
2021/05/15 01:44:50;;;;;;;;;;;23.00;39.50;;;;;;1588996;73;860;-65
2021/05/15 01:46:52;;;;;;;;;;;22.90;39.70;;;;;;1599055;73;719;-65
2021/05/15 01:48:54;;;;;;;;;;;23.00;39.70;;;;;;1572549;74;1140;-65
2021/05/15 01:51:00;;;;;;;;;;;23.00;39.60;;;;;;1570482;74;775;-65
2021/05/15 01:53:02;;;;;;;;;;;23.00;39.60;;;;;;1581362;73;1813;-65
2021/05/15 01:55:04;;;;;;;;;;;23.10;39.70;;;;;;1588442;74;1913;-65
2021/05/15 01:57:06;;;;;;;;;;;23.10;39.60;;;;;;1589043;74;695;-65
2021/05/15 01:59:08;;;;;;;;;;;23.10;39.60;;;;;;1596078;73;1143;-65
2021/05/15 02:01:10;;;;;;;;;;;23.10;39.70;;;;;;1600971;73;760;-65
2021/05/15 02:03:12;;;;;;;;;;;23.00;39.50;;;;;;1600038;73;826;-63
2021/05/15 02:05:14;;;;;;;;;;;23.00;39.60;;;;;;1601283;73;765;-65
2021/05/15 02:07:15;;;;;;;;;;;23.00;39.60;;;;;;1600593;73;731;-64
2021/05/15 02:09:17;;;;;;;;;;;23.10;39.80;;;;;;1602933;73;2093;-69
2021/05/15 02:11:19;;;;;;;;;;;23.00;39.60;;;;;;1596316;73;703;-69
2021/05/15 02:13:21;;;;;;;;;;;23.10;39.70;;;;;;1597222;73;723;-67
2021/05/15 02:15:23;;;;;;;;;;;23.10;39.70;;;;;;1631443;72;1907;-70
2021/05/15 02:17:25;;;;;;;;;;;23.10;39.70;;;;;;1626909;71;842;-70
2021/05/15 02:19:27;;;;;;;;;;;23.10;39.70;;;;;;1612802;72;1208;-70
2021/05/15 02:21:29;;;;;;;;;;;23.10;39.60;;;;;;1600524;73;768;-70
2021/05/15 02:23:30;;;;;;;;;;;23.10;39.60;;;;;;1618399;72;723;-71
2021/05/15 02:25:32;;;;;;;;;;;23.10;39.70;;;;;;1612594;72;719;-69
2021/05/15 02:27:34;;;;;;;;;;;23.10;39.70;;;;;;1618727;72;689;-70
2021/05/15 02:29:36;;;;;;;;;;;23.20;39.60;;;;;;1614321;72;1099;-70
2021/05/15 02:31:38;;;;;;;;;;;23.10;39.70;;;;;;1610250;72;726;-69
2021/05/15 02:33:40;;;;;;;;;;;23.10;39.50;;;;;;1612723;72;783;-70
2021/05/15 02:35:42;;;;;;;;;;;23.10;39.40;;;;;;1617227;72;1909;-69
2021/05/15 02:37:45;;;;;;;;;;;23.10;39.20;;;;;;1615567;72;782;-70
2021/05/15 02:39:46;;;;;;;;;;;23.10;39.20;;;;;;1618858;72;1206;-70
2021/05/15 02:41:48;;;;;;;;;;;23.10;39.20;;;;;;1606493;72;787;-68
2021/05/15 02:43:50;;;;;;;;;;;23.10;39.20;;;;;;1615973;72;897;-70
2021/05/15 02:45:52;;;;;;;;;;;23.00;39.20;;;;;;1613102;72;746;-71
2021/05/15 02:47:54;;;;;;;;;;;22.90;39.30;;;;;;1612974;72;763;-69
2021/05/15 02:49:56;;;;;;;;;;;22.90;39.50;;;;;;1609398;72;1135;-69
2021/05/15 02:51:58;;;;;;;;;;;22.90;39.70;;;;;;1614940;72;733;-70
2021/05/15 02:53:59;;;;;;;;;;;22.80;39.60;;;;;;1619476;72;774;-70
2021/05/15 02:56:01;;;;;;;;;;;22.70;39.60;;;;;;1611957;72;1936;-69
2021/05/15 02:58:03;;;;;;;;;;;22.70;39.70;;;;;;1620420;72;763;-70
2021/05/15 03:00:06;;;;;;;;;;;22.60;39.70;;;;;;1618704;72;1126;-70
2021/05/15 03:02:08;;;;;;;;;;;22.60;39.80;;;;;;1609662;72;691;-69
2021/05/15 03:04:09;;;;;;;;;;;22.50;39.70;;;;;;1606713;72;757;-70
2021/05/15 03:06:11;;;;;;;;;;;22.60;40.00;;;;;;1617652;72;738;-70
2021/05/15 03:08:13;;;;;;;;;;;22.50;39.90;;;;;;1618750;72;763;-71
2021/05/15 03:10:15;;;;;;;;;;;22.60;39.90;;;;;;1616901;73;1166;-70
2021/05/15 03:12:17;;;;;;;;;;;22.50;39.90;;;;;;1617712;72;778;-69
2021/05/15 03:14:19;;;;;;;;;;;22.50;39.70;;;;;;1617456;72;798;-69
2021/05/15 03:16:21;;;;;;;;;;;22.60;39.70;;;;;;1620570;72;1924;-69
2021/05/15 03:18:23;;;;;;;;;;;22.50;39.60;;;;;;1621720;72;763;-70
2021/05/15 03:20:25;;;;;;;;;;;22.50;39.70;;;;;;1621273;72;1126;-70
2021/05/15 03:22:27;;;;;;;;;;;22.60;39.80;;;;;;1616526;72;761;-70
2021/05/15 03:24:29;;;;;;;;;;;22.50;39.70;;;;;;1613465;73;789;-69
2021/05/15 03:26:31;;;;;;;;;;;22.50;39.70;;;;;;1611262;72;901;-72
2021/05/15 03:28:33;;;;;;;;;;;22.60;39.70;;;;;;1605643;73;794;-70
2021/05/15 03:30:34;;;;;;;;;;;22.60;39.60;;;;;;1612891;72;1122;-72
2021/05/15 03:32:37;;;;;;;;;;;22.60;39.70;;;;;;1612365;72;731;-68
2021/05/15 03:34:38;;;;;;;;;;;22.60;39.70;;;;;;1611686;72;873;-68
2021/05/15 03:36:40;;;;;;;;;;;22.60;39.90;;;;;;1617560;72;1940;-69
2021/05/15 03:38:42;;;;;;;;;;;22.60;39.70;;;;;;1611599;73;799;-68
2021/05/15 03:40:44;;;;;;;;;;;22.60;39.70;;;;;;1610831;72;1291;-68
2021/05/15 03:42:48;;;;;;;;;;;22.60;39.70;;;;;;1613472;72;733;-69
2021/05/15 03:44:49;;;;;;;;;;;22.50;39.50;;;;;;1607250;72;771;-71
2021/05/15 03:46:51;;;;;;;;;;;22.60;39.80;;;;;;1606360;73;812;-69
2021/05/15 03:48:53;;;;;;;;;;;22.60;39.50;;;;;;1602874;73;1134;-68
2021/05/15 03:50:55;;;;;;;;;;;22.60;39.50;;;;;;1612389;73;772;-69
2021/05/15 03:52:57;;;;;;;;;;;22.60;39.60;;;;;;1608354;72;728;-70
2021/05/15 03:54:59;;;;;;;;;;;22.60;39.60;;;;;;1592199;73;714;-69
2021/05/15 03:57:01;;;;;;;;;;;22.60;39.60;;;;;;1606629;72;1933;-69
2021/05/15 03:59:03;;;;;;;;;;;22.70;39.80;;;;;;1597509;72;1157;-70
2021/05/15 04:01:05;;;;;;;;;;;22.70;39.80;;;;;;1605886;73;779;-69
2021/05/15 04:03:07;;;;;;;;;;;22.70;39.70;;;;;;1618193;72;806;-72
2021/05/15 04:05:09;;;;;;;;;;;22.70;39.80;;;;;;1602605;73;696;-70
2021/05/15 04:07:11;;;;;;;;;;;22.70;40.00;;;;;;1595604;73;861;-70
2021/05/15 04:09:12;;;;;;;;;;;22.70;39.90;;;;;;1611101;72;1171;-69
2021/05/15 04:11:14;;;;;;;;;;;22.70;39.80;;;;;;1607824;72;773;-69
2021/05/15 04:13:27;;;;;;;;;;;22.80;39.50;;;;;;1606440;72;776;-69
2021/05/15 04:17:38;;;;;;;;;;;22.80;39.20;;;;;;1603024;72;853;-70
2021/05/15 04:19:40;;;;;;;;;;;22.90;39.30;;;;;;1601863;73;1155;-70
2021/05/15 04:21:43;;;;;;;;;;;22.80;39.20;;;;;;1600412;72;800;-69
2021/05/15 04:23:45;;;;;;;;;;;22.90;39.40;;;;;;1606114;73;794;-70
2021/05/15 04:25:46;;;;;;;;;;;23.00;39.20;;;;;;1610716;72;771;-70
2021/05/15 04:27:48;;;;;;;;;;;22.90;39.10;;;;;;1607636;73;680;-70
2021/05/15 04:29:50;;;;;;;;;;;22.90;39.00;;;;;;1609554;73;1153;-69
2021/05/15 04:31:59;;;;;;;;;;;23.00;38.90;;;;;;1611508;73;793;-70
2021/05/15 04:33:59;;;;;;;;;;;23.00;38.90;;;;;;1600731;72;1314;-71
2021/05/15 04:36:00;;;;;;;;;;;23.00;38.90;;;;;;1604505;72;1921;-70
2021/05/15 04:38:06;;;;;;;;;;;23.00;38.80;;;;;;1593121;73;693;-71
2021/05/15 04:40:08;;;;;;;;;;;23.10;38.80;;;;;;1615131;73;1120;-71
2021/05/15 04:42:10;;;;;;;;;;;23.00;38.90;;;;;;1604976;73;790;-72
2021/05/15 04:44:12;;;;;;;;;;;22.90;39.10;;;;;;1609273;73;889;-71
2021/05/15 04:46:14;;;;;;;;;;;23.00;39.10;;;;;;1605081;73;817;-71
2021/05/15 04:48:16;;;;;;;;;;;22.90;39.10;;;;;;1599620;72;661;-73
2021/05/15 04:50:18;;;;;;;;;;;22.90;39.10;;;;;;1603129;72;1073;-72
2021/05/15 04:52:19;;;;;;;;;;;22.90;39.10;;;;;;1605877;73;715;-71
2021/05/15 04:54:21;;;;;;;;;;;22.90;39.20;;;;;;1607263;72;766;-70
2021/05/15 04:56:23;;;;;;;;;;;22.90;39.20;;;;;;1608770;73;1940;-71
2021/05/15 04:58:25;;;;;;;;;;;22.90;39.10;;;;;;1614943;72;788;-71
2021/05/15 05:00:27;;;;;;;;;;;22.90;39.10;;;;;;1597986;73;1134;-71
2021/05/15 05:02:29;;;;;;;;;;;22.90;39.10;;;;;;1608613;72;776;-71
2021/05/15 05:04:31;;;;;;;;;;;22.90;39.00;;;;;;1613187;72;765;-71
2021/05/15 05:06:33;;;;;;;;;;;22.90;39.10;;;;;;1600060;72;664;-71
2021/05/15 05:08:35;;;;;;;;;;;22.90;39.10;;;;;;1610846;73;735;-71
2021/05/15 05:10:37;;;;;;;;;;;22.90;39.10;;;;;;1608018;72;1150;-70
2021/05/15 05:12:39;;;;;;;;;;;22.80;39.00;;;;;;1603371;73;770;-69
2021/05/15 05:14:41;;;;;;;;;;;22.90;39.10;;;;;;1606138;73;805;-70
2021/05/15 05:16:42;;;;;;;;;;;22.90;39.10;;;;;;1609388;73;1934;-71
2021/05/15 05:18:44;;;;;;;;;;;22.90;39.10;;;;;;1607698;72;951;-70
2021/05/15 05:20:46;;;;;;;;;;;22.90;39.20;;;;;;1610898;72;1227;-70
2021/05/15 05:22:49;;;;;;;;;;;22.90;39.10;;;;;;1605826;72;716;-70
2021/05/15 05:24:51;;;;;;;;;;;22.90;39.00;;;;;;1599469;72;755;-70
2021/05/15 05:26:54;;;;;;;;;;;22.90;39.10;;;;;;1611743;73;830;-70
2021/05/15 05:28:58;;;;;;;;;;;22.90;39.00;;;;;;1598379;73;1171;-68
2021/05/15 05:31:00;;;;;;;;;;;22.90;39.30;;;;;;1603623;72;1500;-71
2021/05/15 05:33:02;;;;;;;;;;;22.90;39.30;;;;;;1606180;72;773;-71
2021/05/15 05:35:04;;;;;;;;;;;22.90;39.20;;;;;;1615412;72;713;-70
2021/05/15 05:37:06;;;;;;;;;;;22.90;39.20;;;;;;1602483;73;1932;-69
2021/05/15 05:39:09;;;;;;;;;;;23.00;39.20;;;;;;1614425;73;1134;-71
2021/05/15 05:41:11;;;;;;;;;;;23.00;39.20;;;;;;1596625;72;760;-70
2021/05/15 05:43:13;;;;;;;;;;;22.90;39.20;;;;;;1614090;73;687;-69
2021/05/15 05:45:15;;;;;;;;;;;23.00;39.00;;;;;;1608543;72;804;-71
2021/05/15 05:47:17;;;;;;;;;;;23.00;38.90;;;;;;1608925;73;847;-66
2021/05/15 05:49:19;;;;;;;;;;;23.10;39.20;;;;;;1608599;73;1138;-66
2021/05/15 05:51:21;;;;;;;;;;;23.20;38.80;;;;;;1605738;72;796;-68
2021/05/15 05:53:23;;;;;;;;;;;23.30;38.40;;;;;;1607433;72;763;-71
2021/05/15 05:55:25;;;;;;;;;;;23.30;37.90;;;;;;1606631;73;761;-69
2021/05/15 05:57:27;;;;;;;;;;;23.40;37.70;;;;;;1600459;72;1935;-69
2021/05/15 05:59:28;;;;;;;;;;;23.50;37.50;;;;;;1607127;73;1068;-69
2021/05/15 06:01:30;;;;;;;;;;;23.40;37.10;;;;;;1612112;72;733;-69
2021/05/15 06:03:32;;;;;;;;;;;23.40;37.00;;;;;;1610060;73;678;-71
2021/05/15 06:05:34;;;;;;;;;;;23.50;36.80;;;;;;1614593;72;756;-69
2021/05/15 06:07:36;;;;;;;;;;;23.40;36.60;;;;;;1599654;72;739;-69
2021/05/15 06:09:38;;;;;;;;;;;23.50;36.40;;;;;;1602004;73;1220;-67
2021/05/15 06:11:40;;;;;;;;;;;23.40;36.10;;;;;;1600009;73;793;-68
2021/05/15 06:13:41;;;;;;;;;;;23.40;36.00;;;;;;1598863;73;687;-69
2021/05/15 06:15:43;;;;;;;;;;;23.40;35.90;;;;;;1595614;72;678;-69
2021/05/15 06:17:45;;;;;;;;;;;23.40;35.90;;;;;;1604117;72;1941;-68
2021/05/15 06:19:47;;;;;;;;;;;23.30;36.10;;;;;;1601539;72;1187;-66
2021/05/15 06:21:49;;;;;;;;;;;23.30;36.10;;;;;;1602362;73;725;-67
2021/05/15 06:23:51;;;;;;;;;;;23.30;34.50;;;;;;1608569;72;836;-67
2021/05/15 06:25:53;;;;;;;;;;;23.20;34.50;;;;;;1608914;72;772;-68
2021/05/15 06:27:54;;;;;;;;;;;23.20;34.20;;;;;;1601085;72;724;-68
2021/05/15 06:29:56;;;;;;;;;;;23.20;33.70;;;;;;1605669;72;1127;-68
2021/05/15 06:31:58;;;;;;;;;;;23.20;32.80;;;;;;1595131;72;791;-68
2021/05/15 06:34:00;;;;;;;;;;;23.10;31.30;;;;;;1612804;72;802;-68
2021/05/15 06:36:02;;;;;;;;;;;23.00;30.90;;;;;;1602332;72;794;-69
2021/05/15 06:38:05;;;;;;;;;;;23.00;31.00;;;;;;1572785;74;1938;-65
2021/05/15 06:40:07;;;;;;;;;;;23.00;30.80;;;;;;1597864;73;1141;-65
2021/05/15 06:42:10;;;;;;;;;;;23.00;31.50;;;;;;1599040;73;709;-66
2021/05/15 06:44:11;;;;;;;;;;;22.90;31.80;;;;;;1592592;72;724;-65
2021/05/15 06:46:13;;;;;;;;;;;22.80;31.90;;;;;;1591915;73;781;-65
2021/05/15 06:48:16;;;;;;;;;;;22.70;32.00;;;;;;1594024;73;706;-63
2021/05/15 06:50:18;;;;;;;;;;;22.80;32.40;;;;;;1602347;73;1163;-66
2021/05/15 06:52:19;;;;;;;;;;;22.80;32.40;;;;;;1595330;73;709;-66
2021/05/15 06:54:23;;;;;;;;;;;22.80;32.20;;;;;;1589710;73;796;-67
2021/05/15 06:56:25;;;;;;;;;;;22.80;32.50;;;;;;1594827;72;2217;-65
2021/05/15 06:58:27;;;;;;;;;;;22.90;32.40;;;;;;1592870;73;711;-67
2021/05/15 07:00:28;;;;;;;;;;;22.80;32.30;;;;;;1598252;73;1148;-66
2021/05/15 07:02:30;;;;;;;;;;;22.90;32.40;;;;;;1600980;73;726;-65
2021/05/15 07:04:32;;;;;;;;;;;22.80;32.30;;;;;;1594385;73;702;-66
2021/05/15 07:06:34;;;;;;;;;;;22.80;32.30;;;;;;1594561;73;669;-66
2021/05/15 07:08:36;;;;;;;;;;;22.80;32.00;;;;;;1595604;73;766;-67
2021/05/15 07:10:38;;;;;;;;;;;22.70;31.80;;;;;;1595371;73;1108;-65
2021/05/15 07:12:40;;;;;;;;;;;22.60;32.00;;;;;;1598507;73;784;-66
2021/05/15 07:14:42;;;;;;;;;;;22.60;32.20;;;;;;1586043;73;846;-65
2021/05/15 07:16:43;;;;;;;;;;;22.60;31.90;;;;;;1598280;73;1929;-68
2021/05/15 07:18:45;;;;;;;;;;;22.60;31.80;;;;;;1596674;73;822;-65
2021/05/15 07:20:47;;;;;;;;;;;22.40;32.70;;;;;;1599532;73;1191;-66
2021/05/15 07:22:49;;;;;;;;;;;22.50;32.60;;;;;;1593572;73;808;-66
2021/05/15 07:24:53;;;;;;;;;;;22.50;32.70;;;;;;1603606;73;807;-64
2021/05/15 07:26:54;;;;;;;;;;;22.50;32.20;;;;;;1588377;73;1491;-66
2021/05/15 07:28:56;;;;;;;;;;;22.60;32.50;;;;;;1595130;73;1136;-66
2021/05/15 07:30:58;;;;;;;;;;;22.60;32.80;;;;;;1597543;73;696;-67
2021/05/15 07:33:01;;;;;;;;;;;22.60;33.90;;;;;;1596596;73;787;-65
2021/05/15 07:35:03;;;;;;;;;;;22.70;33.50;;;;;;1596339;73;688;-67
2021/05/15 07:37:05;;;;;;;;;;;22.70;33.40;;;;;;1591116;73;1930;-69
2021/05/15 07:39:07;;;;;;;;;;;22.80;33.30;;;;;;1599981;73;1136;-67
2021/05/15 07:41:08;;;;;;;;;;;22.80;33.20;;;;;;1587069;73;718;-66
2021/05/15 07:43:10;;;;;;;;;;;22.70;33.30;;;;;;1601178;73;700;-64
2021/05/15 07:45:13;;;;;;;;;;;22.80;33.10;;;;;;1590269;73;783;-67
2021/05/15 07:47:15;;;;;;;;;;;22.80;33.00;;;;;;1595862;73;756;-67
2021/05/15 07:49:21;;;;;;;;;;;22.70;32.50;;;;;;1596691;73;1169;-67
2021/05/15 07:51:23;;;;;;;;;;;22.70;32.50;;;;;;1584733;73;1596;-67
2021/05/15 07:53:25;;;;;;;;;;;22.70;32.40;;;;;;1590831;73;745;-70
2021/05/15 07:55:26;;;;;;;;;;;22.60;32.20;;;;;;1601444;73;720;-68
2021/05/15 07:57:28;;;;;;;;;;;22.60;32.50;;;;;;1596694;73;1930;-68
2021/05/15 07:59:30;;;;;;;;;;;22.60;32.20;;;;;;1593164;73;1185;-66
2021/05/15 08:01:32;;;;;;;;;;;22.60;31.70;;;;;;1592470;73;875;-66
2021/05/15 08:03:34;;;;;;;;;;;22.60;32.00;;;;;;1594752;73;729;-67
2021/05/15 08:05:36;;;;;;;;;;;22.60;31.80;;;;;;1597027;73;793;-69
2021/05/15 08:07:38;;;;;;;;;;;22.60;31.70;;;;;;1597572;73;763;-67
2021/05/15 08:09:40;;;;;;;;;;;22.40;31.30;;;;;;1589571;73;221326;-55
2021/05/15 08:11:42;;;;;;;;;;;22.40;31.50;;;;;;1546497;76;719;-56
2021/05/15 08:13:44;;;;;;;;;;;22.30;31.30;;;;;;1542414;76;725;-56
2021/05/15 08:15:45;;;;;;;;;;;22.10;31.20;;;;;;1537742;76;802;-56
2021/05/15 08:17:47;;;;;;;;;;;22.10;31.60;;;;;;1545595;76;1931;-54
2021/05/15 08:19:49;;;;;;;;;;;22.10;31.80;;;;;;1538329;76;1163;-58
2021/05/15 08:21:53;;;;;;;;;;;22.20;31.70;;;;;;1541720;76;760;-54
2021/05/15 08:23:54;;;;;;;;;;;22.20;31.70;;;;;;1544369;76;711;-54
2021/05/15 08:25:56;;;;;;;;;;;22.30;31.90;;;;;;1537417;76;812;-54
2021/05/15 08:28:01;;;;;;;;;;;22.30;31.50;;;;;;1534472;76;759;-55
2021/05/15 08:30:02;;;;;;;;;;;22.30;31.20;;;;;;1535023;74;1768;-55
2021/05/15 08:32:05;;;;;;;;;;;22.20;31.10;;;;;;1538401;76;718;-56
2021/05/15 08:34:06;;;;;;;;;;;22.30;31.10;;;;;;1542206;76;687;-57
2021/05/15 08:36:10;;;;;;;;;;;22.20;31.40;;;;;;1538017;76;803;-57
2021/05/15 08:38:12;;;;;;;;;;;22.20;31.20;;;;;;1531015;76;1920;-55
2021/05/15 08:40:14;;;;;;;;;;;22.10;30.90;;;;;;1544152;76;1162;-55
2021/05/15 08:42:17;;;;;;;;;;;22.00;30.70;;;;;;1536761;76;803;-54
2021/05/15 08:44:19;;;;;;;;;;;22.00;31.00;;;;;;1544735;76;801;-55
2021/05/15 08:46:20;;;;;;;;;;;22.00;31.10;;;;;;1545679;76;789;-55
2021/05/15 08:48:22;;;;;;;;;;;22.10;31.30;;;;;;1556434;76;794;-55
2021/05/15 08:50:25;;;;;;;;;;;22.10;31.30;;;;;;1545164;74;1166;-55
2021/05/15 08:52:27;;;;;;;;;;;22.10;31.30;;;;;;1544613;76;1095;-57
2021/05/15 08:54:29;;;;;;;;;;;22.10;31.30;;;;;;1532540;76;670;-57
2021/05/15 08:56:31;;;;;;;;;;;22.20;30.90;;;;;;1543969;76;800;-55
2021/05/15 08:58:33;;;;;;;;;;;22.10;30.90;;;;;;1545834;76;1929;-54
2021/05/15 09:00:38;;;;;;;;;;;22.20;31.20;;;;;;1541168;76;1114;-56
2021/05/15 09:02:42;;;;;;;;;;;22.20;30.70;;;;;;1547318;76;769;-56
2021/05/15 09:04:43;;;;;;;;;;;22.20;31.10;;;;;;1545035;76;749;-54
2021/05/15 09:06:45;;;;;;;;;;;22.30;30.60;;;;;;1540812;76;722;-56
2021/05/15 09:08:48;;;;;;;;;;;22.40;30.20;;;;;;1541418;76;744;-57
2021/05/15 09:10:50;;;;;;;;;;;22.40;30.10;;;;;;1545122;76;1174;-55
2021/05/15 09:12:52;;;;;;;;;;;22.50;30.00;;;;;;1554728;76;709;-55
2021/05/15 09:14:58;;;;;;;;;;;22.40;29.30;;;;;;1548119;76;695;-57
2021/05/15 09:17:00;;;;;;;;;;;22.30;29.00;;;;;;1550681;76;826;-55
2021/05/15 09:19:05;;;;;;;;;;;22.10;29.40;;;;;;1552034;76;1908;-55
2021/05/15 09:21:15;;;;;;;;;;;22.00;29.40;;;;;;1553805;76;1169;-55
2021/05/15 09:23:17;;;;;;;;;;;22.00;29.70;;;;;;1548356;76;742;-56
2021/05/15 09:25:19;;;;;;;;;;;22.00;29.00;;;;;;1556933;76;750;-57
2021/05/15 09:27:23;;;;;;;;;;;22.00;29.00;;;;;;1542295;76;717;-54
2021/05/15 09:29:24;;;;;;;;;;;22.00;29.40;;;;;;1544046;76;1934;-55
2021/05/15 09:31:27;;;;;;;;;;;22.10;29.40;;;;;;1549838;76;1113;-58
2021/05/15 09:33:29;;;;;;;;;;;22.10;28.50;;;;;;1550504;76;716;-55
2021/05/15 09:35:31;;;;;;;;;;;22.20;28.90;;;;;;1550326;76;775;-57
2021/05/15 09:37:35;;;;;;;;;;;22.10;28.90;;;;;;1547131;76;1965;-57
2021/05/15 09:39:37;;;;;;;;;;;21.90;29.00;;;;;;1542008;76;1877;-55
2021/05/15 09:41:40;;;;;;;;;;;21.90;29.70;;;;;;1540077;76;756;-58
2021/05/15 09:43:42;;;;;;;;;;;21.90;29.60;;;;;;1562390;76;727;-57
2021/05/15 09:45:45;;;;;;;;;;;22.00;29.60;;;;;;1522150;77;1109;-58
2021/05/15 09:47:54;;;;;;;;;;;21.90;28.70;;;;;;1553484;76;809;-58
2021/05/15 09:49:56;;;;;;;;;;;21.90;29.40;;;;;;1543550;76;1164;-56
2021/05/15 09:52:00;;;;;;;;;;;21.50;28.80;;;;;;1541712;76;763;-55
2021/05/15 09:54:12;;;;;;;;;;;21.20;29.90;;;;;;1545265;76;767;-55
2021/05/15 09:56:14;;;;;;;;;;;21.10;30.50;;;;;;1543782;76;753;-56
2021/05/15 09:58:16;;;;;;;;;;;21.10;30.60;;;;;;1552138;76;1936;-55
2021/05/15 10:00:18;;;;;;;;;;;21.30;30.70;;;;;;1537483;75;1160;-58
2021/05/15 10:02:20;;;;;;;;;;;21.30;31.00;;;;;;1512304;77;731;-58
2021/05/15 10:04:25;;;;;;;;;;;21.30;31.00;;;;;;1533498;76;884;-58
2021/05/15 10:06:27;;;;;;;;;;;21.10;30.90;;;;;;1530342;77;776;-56
2021/05/15 10:08:30;;;;;;;;;;;20.90;31.50;;;;;;1521896;77;721;-56
2021/05/15 10:10:32;;;;;;;;;;;20.70;32.10;;;;;;1514962;77;1137;-57
2021/05/15 10:12:34;;;;;;;;;;;20.70;32.00;;;;;;1501745;77;775;-57
2021/05/15 10:14:36;;;;;;;;;;;20.60;32.00;;;;;;1513257;77;807;-56
2021/05/15 10:16:37;;;;;;;;;;;20.70;32.20;;;;;;1511154;77;771;-58
2021/05/15 10:18:39;;;;;;;;;;;21.00;32.20;;;;;;1506984;77;1949;-56
2021/05/15 10:20:41;;;;;;;;;;;21.10;32.20;;;;;;1505062;77;1216;-59
2021/05/15 10:22:43;;;;;;;;;;;21.20;31.80;;;;;;1522503;77;794;-55
2021/05/15 10:24:46;;;;;;;;;;;21.20;31.30;;;;;;1538985;76;679;-56
2021/05/15 10:26:50;;;;;;;;;;;21.10;31.40;;;;;;1532368;76;1049;-55
2021/05/15 10:28:59;;;;;;;;;;;21.00;31.50;;;;;;1533304;76;1831;-57
2021/05/15 10:31:11;;;;;;;;;;;21.00;31.50;;;;;;1512782;77;1565;-55
2021/05/15 10:33:13;;;;;;;;;;;21.00;31.60;;;;;;1522586;77;840;-56
2021/05/15 10:35:15;;;;;;;;;;;20.90;31.40;;;;;;1532619;76;752;-56
2021/05/15 10:37:17;;;;;;;;;;;21.00;31.70;;;;;;1487267;78;1544;-56
2021/05/15 10:39:26;;;;;;;;;;;21.10;31.80;;;;;;1512037;77;1932;-54
2021/05/15 10:41:28;;;;;;;;;;;21.00;31.70;;;;;;1509015;77;1081;-55
2021/05/15 10:43:31;;;;;;;;;;;20.90;31.90;;;;;;1512957;77;734;-56
2021/05/15 10:45:35;;;;;;;;;;;20.80;32.50;;;;;;1518703;77;1684;-56
2021/05/15 10:47:43;;;;;;;;;;;20.90;32.80;;;;;;1516463;77;874;-55
2021/05/15 10:49:45;;;;;;;;;;;20.80;32.80;;;;;;1513860;77;1151;-56
2021/05/15 10:51:48;;;;;;;;;;;20.80;33.00;;;;;;1548200;76;715;-55
2021/05/15 10:53:52;;;;;;;;;;;20.80;32.70;;;;;;1523312;76;806;-56
2021/05/15 10:56:14;;;;;;;;;;;20.80;32.50;;;;;;1521092;76;1057;-56
2021/05/15 10:58:16;;;;;;;;;;;20.80;33.10;;;;;;1511279;76;1898;-56
2021/05/15 11:00:20;;;;;;;;;;;20.70;32.40;;;;;;1533145;76;1227;-56
2021/05/15 11:02:22;;;;;;;;;;;20.60;33.20;;;;;;1506391;76;1653;-56
2021/05/15 11:04:24;;;;;;;;;;;20.70;33.60;;;;;;1515076;77;782;-58
2021/05/15 11:06:30;;;;;;;;;;;20.70;33.40;;;;;;1523334;77;727;-54
2021/05/15 11:08:31;;;;;;;;;;;20.70;33.50;;;;;;1520399;76;1455;-56
2021/05/15 11:10:35;;;;;;;;;;;20.80;33.60;;;;;;1505469;77;1427;-55
2021/05/15 11:12:47;;;;;;;;;;;20.80;32.60;;;;;;1523074;76;1099;-58
2021/05/15 11:14:49;;;;;;;;;;;20.60;32.50;;;;;;1539512;76;752;-56
2021/05/15 11:17:10;;;;;;;;;;;20.60;33.00;;;;;;1540042;76;787;-55
2021/05/15 11:19:13;;;;;;;;;;;20.50;33.30;;;;;;1533111;76;1912;-55
2021/05/15 11:21:15;;;;;;;;;;;20.40;33.50;;;;;;1541384;76;1102;-54
2021/05/15 11:23:20;;;;;;;;;;;20.50;33.40;;;;;;1546301;75;733;-57
2021/05/15 11:25:27;;;;;;;;;;;20.40;33.00;;;;;;1526256;76;849;-54
2021/05/15 11:27:30;;;;;;;;;;;20.50;33.30;;;;;;1505873;77;1744;-56
2021/05/15 11:29:32;;;;;;;;;;;20.50;33.40;;;;;;1506886;77;1145;-54
2021/05/15 11:31:38;;;;;;;;;;;20.60;32.80;;;;;;1497403;77;684;-56
2021/05/15 11:33:40;;;;;;;;;;;20.70;32.80;;;;;;1548992;76;719;-57
2021/05/15 11:35:51;;;;;;;;;;;20.70;32.70;;;;;;1546958;76;787;-56
2021/05/15 11:38:04;;;;;;;;;;;20.80;32.90;;;;;;1547289;76;1923;-56
2021/05/15 11:40:06;;;;;;;;;;;20.80;33.10;;;;;;1556019;74;1174;-56
2021/05/15 11:42:13;;;;;;;;;;;20.90;32.80;;;;;;1535490;76;816;-54
2021/05/15 11:44:15;;;;;;;;;;;21.10;32.50;;;;;;1533287;76;682;-53
2021/05/15 11:46:17;;;;;;;;;;;21.10;32.30;;;;;;1536278;76;795;-54
2021/05/15 11:48:20;;;;;;;;;;;21.10;31.70;;;;;;1537342;76;805;-54
2021/05/15 11:50:22;;;;;;;;;;;21.30;32.00;;;;;;1535691;76;1222;-57
2021/05/15 11:52:33;;;;;;;;;;;21.30;31.90;;;;;;1536998;76;732;-56
2021/05/15 11:54:35;;;;;;;;;;;21.40;31.60;;;;;;1531288;76;762;-53
2021/05/15 11:56:37;;;;;;;;;;;21.30;31.00;;;;;;1540078;76;883;-58
2021/05/15 11:58:43;;;;;;;;;;;21.10;31.10;;;;;;1536622;76;1916;-58
2021/05/15 12:00:45;;;;;;;;;;;20.90;31.80;;;;;;1535529;76;1156;-56
2021/05/15 12:02:47;;;;;;;;;;;20.80;32.10;;;;;;1529508;76;725;-58
2021/05/15 12:04:49;;;;;;;;;;;21.10;32.40;;;;;;1529529;76;732;-58
2021/05/15 12:06:52;;;;;;;;;;;21.20;32.10;;;;;;1534356;76;732;-58
2021/05/15 12:08:54;;;;;;;;;;;21.10;31.80;;;;;;1539662;76;728;-53
2021/05/15 12:10:58;;;;;;;;;;;21.00;31.80;;;;;;1534303;74;1150;-56
2021/05/15 12:13:00;;;;;;;;;;;20.90;32.10;;;;;;1533982;76;810;-55